createdAt,value
2022-09-13T00:03:52.992Z,5.10
2022-09-13T00:08:53.379Z,5.50
2022-09-13T00:13:52.040Z,5.00
2022-09-13T00:18:51.063Z,4.80
2022-09-13T00:23:50.163Z,3.72
2022-09-13T00:28:50.216Z,5.19
2022-09-13T00:33:49.117Z,4.30
2022-09-13T00:38:48.144Z,4.69
2022-09-13T00:43:47.244Z,6.45
2022-09-13T00:48:46.503Z,5.57
2022-09-13T00:53:45.197Z,4.49
2022-09-13T00:58:44.191Z,4.20
2022-09-13T01:03:43.004Z,4.49
2022-09-13T01:08:42.208Z,5.37
2022-09-13T01:13:41.257Z,4.68
2022-09-13T01:18:40.013Z,3.80
2022-09-13T01:23:39.028Z,4.68
2022-09-13T01:28:38.054Z,5.36
2022-09-13T01:33:37.284Z,4.58
2022-09-13T01:38:36.050Z,4.58
2022-09-13T01:43:35.068Z,5.36
2022-09-13T01:48:34.051Z,5.16
2022-09-13T01:53:33.063Z,5.26
2022-09-13T01:58:32.120Z,5.06
2022-09-13T02:03:31.108Z,5.74
2022-09-13T02:08:30.624Z,4.28
2022-09-13T02:13:29.139Z,3.21
2022-09-13T02:18:28.144Z,2.72
2022-09-13T02:23:27.226Z,3.21
2022-09-13T02:28:26.856Z,7.77
2022-09-13T02:33:26.196Z,3.11
2022-09-13T02:38:25.021Z,4.46
2022-09-13T02:43:24.040Z,4.85
2022-09-13T02:48:23.235Z,4.37
2022-09-13T02:53:22.056Z,4.94
2022-09-13T02:58:26.265Z,5.04
2022-09-13T03:03:22.112Z,4.36
2022-09-13T03:08:21.035Z,5.43
2022-09-13T03:13:20.175Z,4.94
2022-09-13T03:18:19.152Z,4.46
2022-09-13T03:23:18.222Z,5.03
2022-09-13T03:28:17.180Z,5.80
2022-09-13T03:33:16.270Z,5.21
2022-09-13T03:38:15.299Z,6.46
2022-09-13T03:43:14.202Z,4.81
2022-09-13T03:48:13.072Z,3.85
2022-09-13T03:53:12.226Z,7.08
2022-09-13T03:58:11.245Z,3.63
2022-09-13T04:03:10.444Z,7.44
2022-09-13T04:08:09.399Z,6.09
2022-09-13T04:13:08.603Z,5.23
2022-09-13T04:18:08.780Z,4.47
2022-09-13T04:23:08.150Z,4.46
2022-09-13T04:28:07.173Z,5.41
2022-09-13T04:33:06.155Z,5.88
2022-09-13T04:38:05.180Z,8.13
2022-09-13T04:43:04.200Z,5.29
2022-09-13T04:48:03.193Z,5.57
2022-09-13T04:53:02.508Z,4.71
2022-09-13T04:58:02.561Z,4.05
2022-09-13T05:03:01.336Z,3.00
2022-09-13T05:08:00.143Z,5.62
2022-09-13T05:12:59.281Z,4.86
2022-09-13T05:17:58.125Z,5.41
2022-09-13T05:22:57.301Z,4.28
2022-09-13T05:27:56.320Z,4.45
2022-09-13T05:32:55.137Z,4.63
2022-09-13T05:37:54.360Z,3.70
2022-09-13T05:42:53.372Z,3.79
2022-09-13T05:47:52.230Z,7.66
2022-09-13T05:52:51.377Z,4.98
2022-09-13T05:57:50.173Z,5.36
2022-09-13T06:02:49.255Z,4.35
2022-09-13T06:07:48.707Z,5.46
2022-09-13T06:12:47.373Z,3.79
2022-09-13T06:17:46.242Z,5.09
2022-09-13T06:22:45.255Z,3.80
2022-09-13T06:27:44.262Z,6.48
2022-09-13T06:32:43.273Z,4.91
2022-09-13T06:37:42.312Z,5.01
2022-09-13T06:42:41.297Z,6.04
2022-09-13T06:47:40.868Z,4.10
2022-09-13T06:52:40.360Z,5.41
2022-09-13T06:57:39.346Z,5.97
2022-09-13T07:02:38.185Z,7.10
2022-09-13T07:07:37.403Z,6.27
2022-09-13T07:12:36.454Z,4.41
2022-09-13T07:17:35.397Z,5.07
2022-09-13T07:22:34.222Z,7.53
2022-09-13T07:27:33.463Z,5.76
2022-09-13T07:32:32.425Z,4.06
2022-09-13T07:37:31.504Z,5.96
2022-09-13T07:42:30.257Z,5.11
2022-09-13T07:47:29.247Z,5.49
2022-09-13T07:52:28.429Z,5.23
2022-09-13T07:57:27.273Z,5.14
2022-09-13T08:02:26.425Z,6.10
2022-09-13T08:07:25.410Z,5.73
2022-09-13T08:12:24.312Z,7.47
2022-09-13T08:17:23.263Z,7.01
2022-09-13T08:22:22.628Z,7.21
2022-09-13T08:27:21.464Z,6.85
2022-09-13T08:32:20.370Z,9.37
2022-09-13T08:37:19.401Z,8.71
2022-09-13T08:42:18.197Z,11.42
2022-09-13T08:47:17.407Z,6.40
2022-09-13T08:52:16.207Z,10.30
2022-09-13T08:57:15.415Z,9.73
2022-09-13T09:02:14.483Z,7.41
2022-09-13T09:07:13.709Z,8.62
2022-09-13T09:12:12.449Z,8.42
2022-09-13T09:17:11.269Z,12.86
2022-09-13T09:22:10.265Z,11.19
2022-09-13T09:27:09.437Z,11.58
2022-09-13T09:32:08.957Z,12.08
2022-09-13T09:37:08.553Z,8.56
2022-09-13T09:42:07.231Z,10.53
2022-09-13T09:47:06.343Z,8.17
2022-09-13T09:52:06.432Z,7.10
2022-09-13T09:57:06.555Z,10.56
2022-09-13T10:02:07.342Z,8.03
2022-09-13T10:07:06.294Z,12.00
2022-09-13T10:12:05.460Z,12.28
2022-09-13T10:17:04.780Z,10.00
2022-09-13T10:22:03.619Z,33.88
2022-09-13T10:27:03.712Z,6.26
2022-09-13T10:32:04.143Z,10.14
2022-09-13T10:37:03.413Z,7.06
2022-09-13T10:42:02.442Z,7.45
2022-09-13T10:47:01.444Z,7.36
2022-09-13T10:52:00.307Z,6.96
2022-09-13T10:56:59.565Z,6.96
2022-09-13T11:01:58.464Z,6.06
2022-09-13T11:07:01.716Z,5.76
2022-09-13T11:11:58.246Z,18.18
2022-09-13T11:16:57.555Z,6.16
2022-09-13T11:21:56.559Z,7.75
2022-09-13T11:26:55.378Z,10.33
2022-09-13T11:31:54.421Z,11.52
2022-09-13T11:36:53.412Z,18.21
2022-09-13T11:41:52.322Z,9.75
2022-09-13T11:46:51.990Z,13.14
2022-09-13T11:51:50.724Z,18.91
2022-09-13T11:56:49.347Z,23.50
2022-09-13T12:01:48.514Z,11.66
2022-09-13T12:06:47.365Z,14.04
2022-09-13T12:11:46.375Z,9.66
2022-09-13T12:16:45.536Z,13.84
2022-09-13T12:21:44.660Z,16.44
2022-09-13T12:26:44.677Z,15.25
2022-09-13T12:31:43.511Z,17.15
2022-09-13T12:36:42.371Z,12.96
2022-09-13T12:41:41.656Z,9.27
2022-09-13T12:46:40.392Z,36.47
2022-09-13T12:51:39.387Z,10.57
2022-09-13T12:56:38.407Z,17.94
2022-09-13T13:01:40.499Z,14.05
2022-09-13T13:06:39.507Z,14.06
2022-09-13T13:11:38.404Z,16.45
2022-09-13T13:16:38.689Z,16.35
2022-09-13T13:21:40.441Z,15.76
2022-09-13T13:26:39.437Z,13.56
2022-09-13T13:31:38.465Z,13.07
2022-09-13T13:36:37.473Z,11.17
2022-09-13T13:41:37.859Z,9.48
2022-09-13T13:46:36.595Z,9.68
2022-09-13T13:51:35.505Z,10.57
2022-09-13T13:56:34.636Z,14.27
2022-09-13T14:01:33.645Z,9.58
2022-09-13T14:06:32.600Z,8.68
2022-09-13T14:11:31.460Z,11.37
2022-09-13T14:16:35.690Z,12.47
2022-09-13T14:21:31.647Z,12.87
2022-09-13T14:26:30.558Z,27.74
2022-09-13T14:31:29.482Z,20.86
2022-09-13T14:36:28.462Z,13.18
2022-09-13T14:41:27.564Z,7.78
2022-09-13T14:46:26.966Z,8.78
2022-09-13T14:51:25.693Z,9.68
2022-09-13T14:56:24.499Z,13.87
2022-09-13T15:01:23.556Z,11.57
2022-09-13T15:06:23.075Z,11.07
2022-09-13T15:11:21.520Z,11.97
2022-09-13T15:16:20.563Z,11.47
2022-09-13T15:21:19.562Z,16.36
2022-09-13T15:26:18.572Z,16.46
2022-09-13T15:31:17.587Z,10.47
2022-09-13T15:36:17.118Z,12.47
2022-09-13T15:41:15.500Z,16.85
2022-09-13T15:46:14.671Z,8.37
2022-09-13T15:51:13.547Z,9.96
2022-09-13T15:56:12.553Z,18.93
2022-09-13T16:01:11.658Z,25.19
2022-09-13T16:06:10.672Z,9.06
2022-09-13T16:11:09.582Z,14.33
2022-09-13T16:16:08.684Z,10.35
2022-09-13T16:21:07.698Z,7.16
2022-09-13T16:26:06.803Z,7.65
2022-09-13T16:31:05.750Z,10.93
2022-09-13T16:36:04.632Z,11.12
2022-09-13T16:41:03.722Z,7.25
2022-09-13T16:46:02.733Z,9.43
2022-09-13T16:51:01.599Z,10.82
2022-09-13T16:56:04.870Z,6.85
2022-09-13T17:01:01.866Z,7.84
2022-09-13T17:06:01.018Z,8.92
2022-09-13T17:10:59.761Z,8.42
2022-09-13T17:15:59.070Z,10.40
2022-09-13T17:20:57.654Z,7.52
2022-09-13T17:25:56.962Z,6.33
2022-09-13T17:30:58.418Z,5.64
2022-09-13T17:35:56.765Z,8.10
2022-09-13T17:40:56.725Z,7.40
2022-09-13T17:45:55.810Z,5.03
2022-09-13T17:50:55.014Z,8.17
2022-09-13T17:55:53.840Z,8.75
2022-09-13T18:00:52.837Z,6.88
2022-09-13T18:05:51.855Z,8.05
2022-09-13T18:11:10.556Z,5.59
2022-09-13T18:15:51.956Z,6.97
2022-09-13T18:20:50.677Z,20.12
2022-09-13T18:25:49.809Z,6.47
2022-09-13T18:30:48.708Z,11.95
2022-09-13T18:35:47.710Z,12.22
2022-09-13T18:40:46.754Z,8.59
2022-09-13T18:45:45.637Z,10.81
2022-09-13T18:50:44.786Z,7.47
2022-09-13T18:55:43.806Z,5.81
2022-09-13T19:00:42.972Z,8.79
2022-09-13T19:05:44.809Z,5.30
2022-09-13T19:10:43.839Z,6.16
2022-09-13T19:15:43.051Z,7.99
2022-09-13T19:20:41.837Z,8.26
2022-09-13T19:25:41.332Z,9.60
2022-09-13T19:30:40.718Z,10.45
2022-09-13T19:35:39.653Z,12.93
2022-09-13T19:40:39.318Z,7.93
2022-09-13T19:45:37.823Z,10.20
2022-09-13T19:50:36.813Z,7.71
2022-09-13T19:55:35.718Z,10.06
2022-09-13T20:00:35.259Z,9.01
2022-09-13T20:05:33.862Z,9.55
2022-09-13T20:10:32.814Z,10.75
2022-09-13T20:15:32.943Z,9.40
2022-09-13T20:20:32.650Z,8.60
2022-09-13T20:25:31.926Z,8.93
2022-09-13T20:30:30.824Z,12.05
2022-09-13T20:35:31.736Z,8.36
2022-09-13T20:40:31.201Z,11.19
2022-09-13T20:45:29.708Z,10.12
2022-09-13T20:50:28.834Z,6.42
2022-09-13T20:55:27.895Z,7.81
2022-09-13T21:00:26.861Z,9.31
2022-09-13T21:05:25.869Z,4.49
2022-09-13T21:10:25.805Z,8.99
2022-09-13T21:15:24.912Z,6.86
2022-09-13T21:20:23.947Z,6.18
2022-09-13T21:25:22.923Z,6.24
2022-09-13T21:30:21.948Z,9.82
2022-09-13T21:35:21.032Z,8.07
2022-09-13T21:40:19.875Z,8.52
2022-09-13T21:45:18.787Z,10.95
2022-09-13T21:50:18.599Z,8.94
2022-09-13T21:55:17.832Z,11.90
2022-09-13T22:00:19.050Z,13.83
2022-09-13T22:05:17.743Z,16.94
2022-09-13T22:10:16.856Z,21.73
2022-09-13T22:15:17.695Z,16.32
2022-09-13T22:20:16.784Z,16.96
2022-09-13T22:25:15.752Z,24.83
2022-09-13T22:30:14.834Z,22.49
2022-09-13T22:35:13.763Z,22.29
2022-09-13T22:40:12.876Z,25.29
2022-09-13T22:45:11.775Z,21.52
2022-09-13T22:50:10.845Z,23.31
2022-09-13T22:55:09.848Z,22.56
2022-09-13T23:00:09.181Z,17.36
2022-09-13T23:05:07.805Z,16.59
2022-09-13T23:10:06.805Z,17.53
2022-09-13T23:15:05.918Z,18.19
2022-09-13T23:20:05.217Z,14.25
2022-09-13T23:25:03.984Z,15.37
2022-09-13T23:30:02.951Z,9.35
2022-09-13T23:35:01.854Z,13.26
2022-09-13T23:40:01.237Z,9.16
2022-09-13T23:44:59.971Z,8.50
2022-09-13T23:49:58.979Z,9.74
2022-09-13T23:54:58.295Z,10.79
2022-09-13T23:59:57.019Z,7.81
